9V9

Chamberlain Municipal Airport

Chamberlain, South Dakota, USA
METAR K9V9 241855Z AUTO 33007KT 7SM -RA SCT008 OVC013 12/12 A2989 RMK AO2 P0004 T01170117
Observed Flight Rules
Sep-24 @ 18:55 UTC (32 minutes ago) Marginal Visual Flight Rules
Wind Visibility Clouds Conditions
330° at 7 knots 7 miles
  • Scattered at 800' AGL
  • Overcast at 1,300' AGL
  • Light Rain
Temperatures Readings Precipitation
Current 12°C / 54°F
Dewpoint 12°C / 54°F
Humidity 100%
Altimeter 29.89" Hg
Pressure 1012 hPa
Elevation 519
Current Rain 0.04
METAR K9V9 241855Z AUTO 33007KT 7SM -RA SCT008 OVC013 12/12 A2989 RMK AO2 P0004 T01170117
Observed Flight Rules
Sep-24 @ 18:55 UTC
(32 minutes ago)
MVFR
Wind Visibility
330° at 7 knots 7 miles
Clouds
  • Scattered at 800' AGL
  • Overcast at 1,300' AGL
Conditions
  • Light Rain
Temperature Dewpoint
12°C / 54°F 12°C / 54°F
Humidity Altimeter Pressure
100% 29.89" Hg 1012 hPa
Current Rain
0.04